createdAt,value
2018-05-02T00:00:23.886Z,95.00
2018-05-02T00:02:24.857Z,94.20
2018-05-02T00:04:26.597Z,93.60
2018-05-02T00:06:27.613Z,93.60
2018-05-02T00:08:28.624Z,93.40
2018-05-02T00:10:30.367Z,95.50
2018-05-02T00:12:32.152Z,95.40
2018-05-02T00:14:33.229Z,95.20
2018-05-02T00:16:34.246Z,95.30
2018-05-02T00:18:36.041Z,94.30
2018-05-02T00:20:36.985Z,94.30
2018-05-02T00:22:38.028Z,94.60
2018-05-02T00:24:39.005Z,95.30
2018-05-02T00:26:39.951Z,94.80
2018-05-02T00:28:41.086Z,94.00
2018-05-02T00:30:41.953Z,94.60
2018-05-02T00:32:43.093Z,94.90
2018-05-02T00:34:44.028Z,95.30
2018-05-02T00:36:45.070Z,95.80
2018-05-02T00:38:46.061Z,94.90
2018-05-02T00:40:47.034Z,94.30
2018-05-02T00:42:48.058Z,94.10
2018-05-02T00:44:50.027Z,93.90
2018-05-02T00:46:51.738Z,95.10
2018-05-02T00:49:04.995Z,95.10
2018-05-02T00:51:06.018Z,95.60
2018-05-02T00:53:07.066Z,96.10
2018-05-02T00:55:08.042Z,95.90
2018-05-02T00:57:09.011Z,95.90
2018-05-02T00:59:10.695Z,96.10
2018-05-02T01:01:12.413Z,96.80
2018-05-02T01:03:13.401Z,96.80
2018-05-02T01:05:15.264Z,96.40
2018-05-02T01:07:16.996Z,96.10
2018-05-02T01:09:18.083Z,96.10
2018-05-02T01:11:19.197Z,95.60
2018-05-02T01:13:20.144Z,95.30
2018-05-02T01:15:21.149Z,94.80
2018-05-02T01:17:22.137Z,94.80
2018-05-02T01:19:23.073Z,94.40
2018-05-02T01:21:24.044Z,95.10
2018-05-02T01:23:25.030Z,96.10
2018-05-02T01:25:26.065Z,96.00
2018-05-02T01:27:27.036Z,96.00
2018-05-02T01:29:28.004Z,95.20
2018-05-02T01:31:29.054Z,95.00
2018-05-02T01:33:30.021Z,95.10
2018-05-02T01:35:31.826Z,94.50
2018-05-02T01:37:32.913Z,95.00
2018-05-02T01:39:33.864Z,95.80
2018-05-02T01:41:34.827Z,95.10
2018-05-02T01:43:36.646Z,95.90
2018-05-02T01:45:37.604Z,95.90
2018-05-02T01:47:38.577Z,96.80
2018-05-02T01:49:39.566Z,96.80
2018-05-02T01:51:40.512Z,96.70
2018-05-02T01:53:41.548Z,96.20
2018-05-02T01:55:42.659Z,95.90
2018-05-02T01:57:43.785Z,96.20
2018-05-02T01:59:44.791Z,96.90
2018-05-02T02:01:46.529Z,97.00
2018-05-02T02:03:47.540Z,97.00
2018-05-02T02:05:48.601Z,97.50
2018-05-02T02:07:49.660Z,97.30
2018-05-02T02:09:50.614Z,97.30
2018-05-02T02:11:52.449Z,97.70
2018-05-02T02:13:53.573Z,97.60
2018-05-02T02:15:54.659Z,97.80
2018-05-02T02:17:55.641Z,97.00
2018-05-02T02:19:56.630Z,96.80
2018-05-02T02:21:57.618Z,96.30
2018-05-02T02:23:58.633Z,96.40
2018-05-02T02:25:59.672Z,96.70
2018-05-02T02:28:00.755Z,96.50
2018-05-02T02:30:01.802Z,96.30
2018-05-02T02:32:02.903Z,96.20
2018-05-02T02:34:04.687Z,96.60
2018-05-02T02:36:05.682Z,96.50
2018-05-02T02:38:07.426Z,96.90
2018-05-02T02:40:09.159Z,97.00
2018-05-02T02:42:10.225Z,97.00
2018-05-02T02:44:11.982Z,97.10
2018-05-02T02:46:12.947Z,97.00
2018-05-02T02:48:14.345Z,97.00
2018-05-02T02:50:15.310Z,97.10
2018-05-02T02:52:16.386Z,97.10
2018-05-02T02:54:17.391Z,97.10
2018-05-02T02:56:18.348Z,97.10
2018-05-02T02:58:19.313Z,97.10
2018-05-02T03:00:20.340Z,97.20
2018-05-02T03:02:21.316Z,97.20
2018-05-02T03:04:22.289Z,97.40
2018-05-02T03:06:23.303Z,97.40
2018-05-02T03:08:24.389Z,97.10
2018-05-02T03:10:25.353Z,97.40
2018-05-02T03:12:26.354Z,97.30
2018-05-02T03:14:27.330Z,97.80
2018-05-02T03:16:28.321Z,97.80
2018-05-02T03:18:29.352Z,98.00
2018-05-02T03:20:30.340Z,97.80
2018-05-02T03:22:32.113Z,98.10
2018-05-02T03:24:33.092Z,98.10
2018-05-02T03:26:35.857Z,97.60
2018-05-02T03:28:36.917Z,97.60
2018-05-02T03:30:37.877Z,97.40
2018-05-02T03:32:39.678Z,97.00
2018-05-02T03:34:40.644Z,97.00
2018-05-02T03:36:41.586Z,96.40
2018-05-02T03:38:42.790Z,96.30
2018-05-02T03:40:43.861Z,95.90
2018-05-02T03:42:44.819Z,96.00
2018-05-02T03:44:45.885Z,96.00
2018-05-02T03:46:46.874Z,96.00
2018-05-02T03:48:48.607Z,95.20
2018-05-02T03:50:49.632Z,95.20
2018-05-02T03:52:50.574Z,95.50
2018-05-02T03:54:51.578Z,95.30
2018-05-02T03:56:52.615Z,95.20
2018-05-02T03:58:54.323Z,95.40
2018-05-02T04:01:07.737Z,95.10
2018-05-02T04:03:21.899Z,95.00
2018-05-02T04:05:35.270Z,95.00
2018-05-02T04:07:36.264Z,95.20
2018-05-02T04:09:37.208Z,95.10
2018-05-02T04:11:38.188Z,95.60
2018-05-02T04:13:39.157Z,95.60
2018-05-02T04:15:40.120Z,95.60
2018-05-02T04:17:41.410Z,94.70
2018-05-02T04:19:43.099Z,94.80
2018-05-02T04:21:44.980Z,94.80
2018-05-02T04:23:46.006Z,93.90
2018-05-02T04:25:47.042Z,93.80
2018-05-02T04:27:48.017Z,94.20
2018-05-02T04:29:49.591Z,92.80
2018-05-02T04:31:50.621Z,93.50
2018-05-02T04:33:51.584Z,93.30
2018-05-02T04:35:52.576Z,93.50
2018-05-02T04:37:53.574Z,93.80
2018-05-02T04:39:54.653Z,93.40
2018-05-02T04:41:55.602Z,93.40
2018-05-02T04:43:56.606Z,93.50
2018-05-02T04:45:57.585Z,93.00
2018-05-02T04:47:58.557Z,93.00
2018-05-02T04:49:59.561Z,93.30
2018-05-02T04:52:00.511Z,93.30
2018-05-02T04:54:01.467Z,92.60
2018-05-02T04:56:02.400Z,92.70
2018-05-02T04:58:03.337Z,92.30
2018-05-02T05:00:04.275Z,92.80
2018-05-02T05:02:05.197Z,92.20
2018-05-02T05:04:06.127Z,92.00
2018-05-02T05:06:07.797Z,91.90
2018-05-02T05:08:09.469Z,91.70
2018-05-02T05:10:10.395Z,91.70
2018-05-02T05:12:12.129Z,91.50
2018-05-02T05:14:13.011Z,91.50
2018-05-02T05:16:14.680Z,91.70
2018-05-02T05:18:15.603Z,91.70
2018-05-02T05:20:17.288Z,91.90
2018-05-02T05:22:18.210Z,91.90
2018-05-02T05:24:19.888Z,92.50
2018-05-02T05:26:21.548Z,92.10
2018-05-02T05:28:23.226Z,92.40
2018-05-02T05:30:24.149Z,92.40
2018-05-02T05:32:25.809Z,91.70
2018-05-02T05:34:27.520Z,91.50
2018-05-02T05:36:28.488Z,91.50
2018-05-02T05:38:29.465Z,91.20
2018-05-02T05:40:31.130Z,87.60
2018-05-02T05:42:32.786Z,88.90
2018-05-02T05:44:34.471Z,88.40
2018-05-02T05:46:35.392Z,88.40
2018-05-02T05:48:36.313Z,86.50
2018-05-02T05:50:37.238Z,89.40
2018-05-02T05:52:38.166Z,85.60
2018-05-02T05:54:39.307Z,85.90
2018-05-02T05:56:40.241Z,84.60
2018-05-02T05:58:41.921Z,82.10
2018-05-02T06:00:42.887Z,82.10
2018-05-02T06:02:44.517Z,85.50
2018-05-02T06:04:45.436Z,85.40
2018-05-02T06:06:46.388Z,85.00
2018-05-02T06:08:47.284Z,86.30
2018-05-02T06:10:48.230Z,84.60
2018-05-02T06:12:49.175Z,87.20
2018-05-02T06:14:50.069Z,82.70
2018-05-02T06:16:51.737Z,83.00
2018-05-02T06:18:53.509Z,83.00
2018-05-02T06:20:54.372Z,82.00
2018-05-02T06:22:55.325Z,84.30
2018-05-02T06:24:56.258Z,81.60
2018-05-02T06:26:57.190Z,81.20
2018-05-02T06:28:58.130Z,78.20
2018-05-02T06:30:59.802Z,77.60
2018-05-02T06:33:00.741Z,77.50
2018-05-02T06:35:02.412Z,70.60
2018-05-02T06:37:03.333Z,70.70
2018-05-02T06:39:04.286Z,73.10
2018-05-02T06:41:05.957Z,65.50
2018-05-02T06:43:06.901Z,64.80
2018-05-02T06:45:08.597Z,64.20
2018-05-02T06:47:09.540Z,64.50
2018-05-02T06:49:10.512Z,70.40
2018-05-02T06:51:11.450Z,67.00
2018-05-02T06:53:12.409Z,66.40
2018-05-02T06:55:13.338Z,60.40
2018-05-02T06:57:14.261Z,67.90
2018-05-02T06:59:15.956Z,63.40
2018-05-02T07:01:16.898Z,63.50
2018-05-02T07:03:17.846Z,63.50
2018-05-02T07:05:18.793Z,58.40
2018-05-02T07:07:19.747Z,52.10
2018-05-02T07:09:20.699Z,59.50
2018-05-02T07:11:21.634Z,54.30
2018-05-02T07:13:22.572Z,51.00
2018-05-02T07:15:23.506Z,49.00
2018-05-02T07:17:24.435Z,53.30
2018-05-02T07:19:25.371Z,49.70
2018-05-02T07:21:26.317Z,51.90
2018-05-02T07:23:27.281Z,49.10
2018-05-02T07:25:28.210Z,52.20
2018-05-02T07:27:29.141Z,46.50
2018-05-02T07:29:30.124Z,40.90
2018-05-02T07:31:31.079Z,43.70
2018-05-02T07:33:32.019Z,44.50
2018-05-02T07:35:32.938Z,45.10
2018-05-02T07:37:33.857Z,42.20
2018-05-02T07:39:35.522Z,38.40
2018-05-02T07:41:37.188Z,38.80
2018-05-02T07:43:38.869Z,39.30
2018-05-02T07:45:39.797Z,39.40
2018-05-02T07:47:41.474Z,38.30
2018-05-02T07:49:42.417Z,37.40
2018-05-02T07:51:43.353Z,40.60
2018-05-02T07:53:44.301Z,40.50
2018-05-02T07:55:45.986Z,44.00
2018-05-02T07:57:46.909Z,45.40
2018-05-02T07:59:48.266Z,39.20
2018-05-02T08:01:49.210Z,40.20
2018-05-02T08:03:50.154Z,41.30
2018-05-02T08:05:51.081Z,42.40
2018-05-02T08:07:52.754Z,42.30
2018-05-02T08:09:54.429Z,39.30
2018-05-02T08:11:55.341Z,39.10
2018-05-02T08:13:56.285Z,42.90
2018-05-02T08:15:57.201Z,44.40
2018-05-02T08:17:58.121Z,42.30
2018-05-02T08:19:59.053Z,41.20
2018-05-02T08:22:00.044Z,44.60
2018-05-02T08:24:01.667Z,45.40
2018-05-02T08:26:02.597Z,45.50
2018-05-02T08:28:04.265Z,42.50
2018-05-02T08:30:05.933Z,45.10
2018-05-02T08:32:07.605Z,39.10
2018-05-02T08:34:08.550Z,39.20
2018-05-02T08:36:09.484Z,42.20
2018-05-02T08:38:11.152Z,42.20
2018-05-02T08:40:12.082Z,42.30
2018-05-02T08:42:13.769Z,40.30
2018-05-02T08:44:14.696Z,40.20
2018-05-02T08:46:16.357Z,41.50
2018-05-02T08:48:18.031Z,42.20
2018-05-02T08:50:18.969Z,42.10
2018-05-02T08:52:20.643Z,44.70
2018-05-02T08:54:21.582Z,45.10
2018-05-02T08:56:23.244Z,38.60
2018-05-02T08:58:24.896Z,41.20
2018-05-02T09:00:26.571Z,37.80
2018-05-02T09:02:28.233Z,41.80
2018-05-02T09:04:29.169Z,41.60
2018-05-02T09:06:30.837Z,38.30
2018-05-02T09:08:32.493Z,38.70
2018-05-02T09:10:34.182Z,38.70
2018-05-02T09:12:35.520Z,38.70
2018-05-02T09:14:37.215Z,34.60
2018-05-02T09:16:38.853Z,39.20
2018-05-02T09:18:39.782Z,39.40
2018-05-02T09:20:41.789Z,34.10
2018-05-02T09:22:42.721Z,33.90
2018-05-02T09:24:43.664Z,38.70
2018-05-02T09:26:44.610Z,32.30
2018-05-02T09:28:45.541Z,33.40
2018-05-02T09:30:47.214Z,39.10
2018-05-02T09:32:48.148Z,38.90
2018-05-02T09:34:49.816Z,37.10
2018-05-02T09:36:51.503Z,32.20
2018-05-02T09:38:52.441Z,32.20
2018-05-02T09:40:53.362Z,30.70
2018-05-02T09:42:55.032Z,36.60
2018-05-02T09:44:56.696Z,33.40
2018-05-02T09:46:57.633Z,33.00
2018-05-02T09:48:58.585Z,34.80
2018-05-02T09:50:59.513Z,34.20
2018-05-02T09:53:01.186Z,32.10
2018-05-02T09:55:02.867Z,34.80
2018-05-02T09:57:03.794Z,34.60
2018-05-02T09:59:05.484Z,30.40
2018-05-02T10:01:06.419Z,30.50
2018-05-02T10:03:07.362Z,34.00
2018-05-02T10:05:08.290Z,34.60
2018-05-02T10:07:09.969Z,33.40
2018-05-02T10:09:10.925Z,33.10
2018-05-02T10:11:11.864Z,29.80
2018-05-02T10:13:12.809Z,28.90
2018-05-02T10:15:13.753Z,30.70
2018-05-02T10:17:14.668Z,26.90
2018-05-02T10:19:15.616Z,30.10
2018-05-02T10:21:16.550Z,28.90
2018-05-02T10:23:17.469Z,26.80
2018-05-02T10:25:18.418Z,27.90
2018-05-02T10:27:19.349Z,24.60
2018-05-02T10:29:20.285Z,24.10
2018-05-02T10:31:21.203Z,27.00
2018-05-02T10:33:22.214Z,27.80
2018-05-02T10:35:23.139Z,26.40
2018-05-02T10:37:24.044Z,26.60
2018-05-02T10:39:24.966Z,27.10
2018-05-02T10:41:25.892Z,30.00
2018-05-02T10:43:26.836Z,29.20
2018-05-02T10:45:27.755Z,27.10
2018-05-02T10:47:28.685Z,26.50
2018-05-02T10:49:29.637Z,29.00
2018-05-02T10:51:30.562Z,29.20
2018-05-02T10:53:32.232Z,25.30
2018-05-02T10:55:33.153Z,25.40
2018-05-02T10:57:34.817Z,27.30
2018-05-02T10:59:36.492Z,25.90
2018-05-02T11:01:38.152Z,26.90
2018-05-02T11:03:39.816Z,27.90
2018-05-02T11:05:40.741Z,27.70
2018-05-02T11:07:42.397Z,24.00
2018-05-02T11:09:43.320Z,25.00
2018-05-02T11:11:44.248Z,27.50
2018-05-02T11:13:45.168Z,27.70
2018-05-02T11:15:46.091Z,24.00
2018-05-02T11:17:47.749Z,23.90
2018-05-02T11:19:48.661Z,24.00
2018-05-02T11:21:49.601Z,26.00
2018-05-02T11:23:50.525Z,23.60
2018-05-02T11:25:51.466Z,22.60
2018-05-02T11:27:52.400Z,23.30
2018-05-02T11:29:53.336Z,25.70
2018-05-02T11:31:54.253Z,24.90
2018-05-02T11:33:55.156Z,25.80
2018-05-02T11:35:56.832Z,23.80
2018-05-02T11:37:57.758Z,23.90
2018-05-02T11:39:58.696Z,26.70
2018-05-02T11:41:59.612Z,25.70
2018-05-02T11:44:01.265Z,25.40
2018-05-02T11:46:02.186Z,25.50
2018-05-02T11:48:03.137Z,23.60
2018-05-02T11:50:04.065Z,26.40
2018-05-02T11:52:04.998Z,25.20
2018-05-02T11:54:05.924Z,23.10
2018-05-02T11:56:06.849Z,25.10
2018-05-02T11:58:08.514Z,23.80
2018-05-02T12:00:10.185Z,25.10
2018-05-02T12:02:11.113Z,25.10
2018-05-02T12:04:12.772Z,23.80
2018-05-02T12:06:14.441Z,21.80
2018-05-02T12:08:16.109Z,24.40
2018-05-02T12:10:17.782Z,23.10
2018-05-02T12:12:18.702Z,23.00
2018-05-02T12:14:19.610Z,22.30
2018-05-02T12:16:20.544Z,20.00
2018-05-02T12:18:22.213Z,21.60
2018-05-02T12:20:23.141Z,21.80
2018-05-02T12:22:24.069Z,20.90
2018-05-02T12:24:25.005Z,23.30
2018-05-02T12:26:25.937Z,24.50
2018-05-02T12:28:27.581Z,24.70
2018-05-02T12:30:28.500Z,24.00
2018-05-02T12:32:29.417Z,22.50
2018-05-02T12:34:30.360Z,22.20
2018-05-02T12:36:31.287Z,22.80
2018-05-02T12:38:32.932Z,21.10
2018-05-02T12:40:33.853Z,21.20
2018-05-02T12:42:34.760Z,22.50
2018-05-02T12:44:35.688Z,25.20
2018-05-02T12:46:37.447Z,20.70
2018-05-02T12:48:38.288Z,20.70
2018-05-02T12:50:39.955Z,25.50
2018-05-02T12:52:41.608Z,23.50
2018-05-02T12:54:43.269Z,24.00
2018-05-02T12:56:44.194Z,24.00
2018-05-02T12:58:45.111Z,22.50
2018-05-02T13:00:46.043Z,25.70
2018-05-02T13:02:46.988Z,24.70
2018-05-02T13:04:47.910Z,24.00
2018-05-02T13:06:49.583Z,22.60
2018-05-02T13:08:50.516Z,22.60
2018-05-02T13:10:52.182Z,23.20
2018-05-02T13:12:53.098Z,23.00
2018-05-02T13:14:54.021Z,21.90
2018-05-02T13:16:54.945Z,25.10
2018-05-02T13:18:55.880Z,22.00
2018-05-02T13:20:56.796Z,23.30
2018-05-02T13:22:57.713Z,22.10
2018-05-02T13:24:58.633Z,22.60
2018-05-02T13:26:59.547Z,22.60
2018-05-02T13:29:00.473Z,22.40
2018-05-02T13:31:02.162Z,25.70
2018-05-02T13:33:03.103Z,25.80
2018-05-02T13:35:04.773Z,23.30
2018-05-02T13:37:05.680Z,23.30
2018-05-02T13:39:06.594Z,24.10
2018-05-02T13:41:07.566Z,22.60
2018-05-02T13:43:08.481Z,22.20
2018-05-02T13:45:09.409Z,22.30
2018-05-02T13:47:10.332Z,24.00
2018-05-02T13:49:11.341Z,22.80
2018-05-02T13:51:12.211Z,25.80
2018-05-02T13:53:13.865Z,23.30
2018-05-02T13:55:14.795Z,23.10
2018-05-02T13:57:15.718Z,25.30
2018-05-02T13:59:16.633Z,25.90
2018-05-02T14:01:17.569Z,25.20
2018-05-02T14:03:18.492Z,23.40
2018-05-02T14:05:19.405Z,24.70
2018-05-02T14:07:20.307Z,25.30
2018-05-02T14:09:21.217Z,22.90
2018-05-02T14:11:22.120Z,24.90
2018-05-02T14:13:23.785Z,26.20
2018-05-02T14:15:24.724Z,26.00
2018-05-02T14:17:25.646Z,27.80
2018-05-02T14:19:26.568Z,24.70
2018-05-02T14:21:27.525Z,23.70
2018-05-02T14:23:29.172Z,25.30
2018-05-02T14:25:30.101Z,25.40
2018-05-02T14:27:31.025Z,26.30
2018-05-02T14:29:31.950Z,25.70
2018-05-02T14:31:32.868Z,27.20
2018-05-02T14:33:34.529Z,25.20
2018-05-02T14:35:36.201Z,29.10
2018-05-02T14:37:37.133Z,28.90
2018-05-02T14:39:38.784Z,26.10
2018-05-02T14:41:39.707Z,26.10
2018-05-02T14:43:40.616Z,27.90
2018-05-02T14:45:41.547Z,28.50
2018-05-02T14:47:42.455Z,27.20
2018-05-02T14:49:43.372Z,27.20
2018-05-02T14:51:44.281Z,25.60
2018-05-02T14:53:45.193Z,27.20
2018-05-02T14:55:46.104Z,26.20
2018-05-02T14:57:47.017Z,28.20
2018-05-02T14:59:47.933Z,27.80
2018-05-02T15:01:48.852Z,27.40
2018-05-02T15:03:49.792Z,28.60
2018-05-02T15:05:50.715Z,26.50
2018-05-02T15:07:51.633Z,27.30
2018-05-02T15:09:53.317Z,25.40
2018-05-02T15:11:54.266Z,26.00
2018-05-02T15:13:55.181Z,27.00
2018-05-02T15:15:56.833Z,31.50
2018-05-02T15:17:58.560Z,33.30
2018-05-02T15:19:59.398Z,33.60
2018-05-02T15:22:00.335Z,29.90
2018-05-02T15:24:01.254Z,30.00
2018-05-02T15:26:02.198Z,29.70
2018-05-02T15:28:03.115Z,28.30
2018-05-02T15:30:04.028Z,31.90
2018-05-02T15:32:04.951Z,30.90
2018-05-02T15:34:05.864Z,36.40
2018-05-02T15:36:07.552Z,32.20
2018-05-02T15:38:08.464Z,32.30
2018-05-02T15:40:10.117Z,28.10
2018-05-02T15:42:11.033Z,28.20
2018-05-02T15:44:11.957Z,28.40
2018-05-02T15:46:12.878Z,31.40
2018-05-02T15:48:14.527Z,29.90
2018-05-02T15:50:16.238Z,28.80
2018-05-02T15:52:17.860Z,30.70
2018-05-02T15:54:19.542Z,32.70
2018-05-02T15:56:20.480Z,32.70
2018-05-02T15:58:21.407Z,31.70
2018-05-02T16:00:22.317Z,33.10
2018-05-02T16:02:23.245Z,34.80
2018-05-02T16:04:24.166Z,32.20
2018-05-02T16:06:25.094Z,33.60
2018-05-02T16:08:26.752Z,34.00
2018-05-02T16:10:28.410Z,32.70
2018-05-02T16:12:30.082Z,33.30
2018-05-02T16:14:31.757Z,35.20
2018-05-02T16:16:32.780Z,35.30
2018-05-02T16:18:34.345Z,35.80
2018-05-02T16:20:36.002Z,34.40
2018-05-02T16:22:37.663Z,34.50
2018-05-02T16:24:39.336Z,35.70
2018-05-02T16:26:41.009Z,37.90
2018-05-02T16:28:42.465Z,37.90
2018-05-02T16:30:43.383Z,39.60
2018-05-02T16:32:44.310Z,36.70
2018-05-02T16:34:45.252Z,38.00
2018-05-02T16:36:51.997Z,37.60
2018-05-02T16:38:52.997Z,39.20
2018-05-02T16:40:53.922Z,36.80
2018-05-02T16:42:54.840Z,37.20
2018-05-02T16:44:56.054Z,39.30
2018-05-02T16:46:56.925Z,39.40
2018-05-02T16:48:57.859Z,40.10
2018-05-02T16:50:58.797Z,40.60
2018-05-02T16:53:00.459Z,41.10
2018-05-02T16:55:02.105Z,40.80
2018-05-02T16:57:03.786Z,43.20
2018-05-02T16:59:05.452Z,39.90
2018-05-02T17:01:07.202Z,39.40
2018-05-02T17:03:08.930Z,43.10
2018-05-02T17:05:10.565Z,43.10
2018-05-02T17:07:11.513Z,43.10
2018-05-02T17:09:12.491Z,42.00
2018-05-02T17:11:13.487Z,43.90
2018-05-02T17:13:14.375Z,43.40
2018-05-02T17:15:15.289Z,42.00
2018-05-02T17:17:16.213Z,40.40
2018-05-02T17:19:17.868Z,45.00
2018-05-02T17:21:19.528Z,43.00
2018-05-02T17:23:21.181Z,42.70
2018-05-02T17:25:23.563Z,43.10
2018-05-02T17:27:24.576Z,43.10
2018-05-02T17:29:25.485Z,43.50
2018-05-02T17:31:26.392Z,44.90
2018-05-02T17:33:27.309Z,44.20
2018-05-02T17:35:28.254Z,45.00
2018-05-02T17:37:29.184Z,45.80
2018-05-02T17:39:30.864Z,45.50
2018-05-02T17:41:31.772Z,45.50
2018-05-02T17:43:32.700Z,46.00
2018-05-02T17:45:34.353Z,46.10
2018-05-02T17:47:36.008Z,46.00
2018-05-02T17:49:36.916Z,45.70
2018-05-02T17:51:37.838Z,48.30
2018-05-02T17:53:38.765Z,46.90
2018-05-02T17:55:39.749Z,47.50
2018-05-02T17:57:40.676Z,46.60
2018-05-02T17:59:41.607Z,45.90
2018-05-02T18:01:42.537Z,48.90
2018-05-02T18:03:44.214Z,48.80
2018-05-02T18:05:45.147Z,48.80
2018-05-02T18:07:46.801Z,52.20
2018-05-02T18:09:48.473Z,51.00
2018-05-02T18:11:52.875Z,50.90
2018-05-02T18:14:04.254Z,49.50
2018-05-02T18:16:05.269Z,48.50
2018-05-02T18:18:06.274Z,51.80
2018-05-02T18:20:07.944Z,51.30
2018-05-02T18:22:09.617Z,54.50
2018-05-02T18:24:10.652Z,54.50
2018-05-02T18:26:11.601Z,52.50
2018-05-02T18:28:13.277Z,53.70
2018-05-02T18:30:14.408Z,53.60
2018-05-02T18:32:16.085Z,51.70
2018-05-02T18:34:17.019Z,51.80
2018-05-02T18:36:18.689Z,54.50
2018-05-02T18:38:20.361Z,53.70
2018-05-02T18:40:21.289Z,53.70
2018-05-02T18:42:22.949Z,56.00
2018-05-02T18:44:24.640Z,54.60
2018-05-02T18:46:26.205Z,54.60
2018-05-02T18:48:27.142Z,55.20
2018-05-02T18:50:28.304Z,54.60
2018-05-02T18:52:32.612Z,54.40
2018-05-02T18:54:33.921Z,55.40
2018-05-02T18:56:36.001Z,55.30
2018-05-02T18:58:37.080Z,55.90
2018-05-02T19:00:38.746Z,56.90
2018-05-02T19:02:39.676Z,56.90
2018-05-02T19:04:41.354Z,57.30
2018-05-02T19:06:42.283Z,57.30
2018-05-02T19:08:43.948Z,58.00
2018-05-02T19:10:45.648Z,59.50
2018-05-02T19:12:47.194Z,59.50
2018-05-02T19:14:48.151Z,60.60
2018-05-02T19:16:49.082Z,60.00
2018-05-02T19:18:56.112Z,59.50
2018-05-02T19:20:57.036Z,58.60
2018-05-02T19:22:58.012Z,59.50
2018-05-02T19:25:05.049Z,59.50
2018-05-02T19:27:12.749Z,60.30
2018-05-02T19:29:13.686Z,60.50
2018-05-02T19:31:20.673Z,61.80
2018-05-02T19:33:28.916Z,62.50
2018-05-02T19:35:29.907Z,62.50
2018-05-02T19:37:37.768Z,61.20
2018-05-02T19:39:44.833Z,62.30
2018-05-02T19:41:52.622Z,62.20
2018-05-02T19:43:59.781Z,62.30
2018-05-02T19:48:07.406Z,62.10
2018-05-02T19:50:08.458Z,62.60
2018-05-02T19:52:16.269Z,61.60
2018-05-02T19:54:21.323Z,61.60
2018-05-02T19:56:29.264Z,62.40
2018-05-02T19:58:34.327Z,62.40
2018-05-02T20:00:46.193Z,62.30
2018-05-02T20:05:07.350Z,62.10
2018-05-02T20:07:14.804Z,63.20
2018-05-02T20:09:21.837Z,62.90
2018-05-02T20:11:29.070Z,61.60
2018-05-02T20:13:36.228Z,63.80
2018-05-02T20:15:37.111Z,64.50
2018-05-02T20:17:38.073Z,65.60
2018-05-02T20:19:39.071Z,65.70
2018-05-02T20:21:40.110Z,67.30
2018-05-02T20:23:41.799Z,66.60
2018-05-02T20:25:43.992Z,67.90
2018-05-02T20:27:45.031Z,67.90
2018-05-02T20:29:45.954Z,70.50
2018-05-02T20:31:46.900Z,72.30
2018-05-02T20:33:47.858Z,71.00
2018-05-02T20:35:48.906Z,71.50
2018-05-02T20:37:49.822Z,68.50
2018-05-02T20:39:51.177Z,70.30
2018-05-02T20:41:52.156Z,72.30
2018-05-02T20:43:53.169Z,71.30
2018-05-02T20:45:54.898Z,73.70
2018-05-02T20:48:00.700Z,73.70
2018-05-02T20:50:01.633Z,71.80
2018-05-02T20:52:04.481Z,76.50
2018-05-02T20:54:05.443Z,76.40
2018-05-02T20:56:06.438Z,76.80
2018-05-02T20:58:07.372Z,79.80
2018-05-02T21:00:08.349Z,76.60
2018-05-02T21:02:09.314Z,79.00
2018-05-02T21:04:10.252Z,80.50
2018-05-02T21:06:12.967Z,78.20
2018-05-02T21:08:14.721Z,82.70
2018-05-02T21:10:15.665Z,82.70
2018-05-02T21:12:16.613Z,78.90
2018-05-02T21:14:17.637Z,81.50
2018-05-02T21:16:20.067Z,77.90
2018-05-02T21:18:21.035Z,79.30
2018-05-02T21:20:21.958Z,78.90
2018-05-02T21:22:22.871Z,78.10
2018-05-02T21:24:23.858Z,77.90
2018-05-02T21:26:24.788Z,78.00
2018-05-02T21:28:25.718Z,77.80
2018-05-02T21:30:26.680Z,78.50
2018-05-02T21:32:27.730Z,79.90
2018-05-02T21:34:29.403Z,82.40
2018-05-02T21:36:30.474Z,82.40
2018-05-02T21:38:31.529Z,83.90
2018-05-02T21:40:32.539Z,86.00
2018-05-02T21:42:33.417Z,87.60
2018-05-02T21:44:34.401Z,89.90
2018-05-02T21:46:35.328Z,88.90
2018-05-02T21:48:36.323Z,90.00
2018-05-02T21:50:38.096Z,90.90
2018-05-02T21:52:40.541Z,90.70
2018-05-02T21:54:42.233Z,90.70
2018-05-02T21:56:43.924Z,91.30
2018-05-02T21:58:44.887Z,91.30
2018-05-02T22:00:45.869Z,89.50
2018-05-02T22:02:46.817Z,90.30
2018-05-02T22:04:47.774Z,89.70
2018-05-02T22:06:48.757Z,89.90
2018-05-02T22:08:49.705Z,90.40
2018-05-02T22:10:51.396Z,91.10
2018-05-02T22:12:52.360Z,91.00
2018-05-02T22:14:54.100Z,91.20
2018-05-02T22:16:55.085Z,91.20
2018-05-02T22:18:56.810Z,92.30
2018-05-02T22:20:57.835Z,92.10
2018-05-02T22:22:58.807Z,92.30
2018-05-02T22:24:59.745Z,92.70
2018-05-02T22:27:00.720Z,92.90
2018-05-02T22:29:01.677Z,92.70
2018-05-02T22:31:02.603Z,93.10
2018-05-02T22:33:03.651Z,93.20
2018-05-02T22:35:04.629Z,93.00
2018-05-02T22:37:06.303Z,93.40
2018-05-02T22:39:07.306Z,93.40
2018-05-02T22:41:08.350Z,93.00
2018-05-02T22:43:09.283Z,93.00
2018-05-02T22:45:10.252Z,93.20
2018-05-02T22:47:11.172Z,93.20
2018-05-02T22:49:12.129Z,93.40
2018-05-02T22:51:13.112Z,93.00
2018-05-02T22:53:14.933Z,91.70
2018-05-02T22:55:15.925Z,91.70
2018-05-02T22:57:16.895Z,91.80
2018-05-02T22:59:17.826Z,91.40
2018-05-02T23:01:18.856Z,91.40
2018-05-02T23:03:20.642Z,91.60
2018-05-02T23:05:21.685Z,91.60
2018-05-02T23:07:22.664Z,91.50
2018-05-02T23:09:23.638Z,91.60
2018-05-02T23:11:24.617Z,91.90
2018-05-02T23:13:26.284Z,92.90
2018-05-02T23:15:27.281Z,92.90
2018-05-02T23:17:28.208Z,93.20
2018-05-02T23:19:29.165Z,93.30
2018-05-02T23:21:30.145Z,93.80
2018-05-02T23:23:31.099Z,94.00
2018-05-02T23:25:32.784Z,94.10
2018-05-02T23:27:34.693Z,94.10
2018-05-02T23:29:35.687Z,94.10
2018-05-02T23:31:37.364Z,94.30
2018-05-02T23:33:39.110Z,94.30
2018-05-02T23:35:40.792Z,94.10
2018-05-02T23:37:41.735Z,94.10
2018-05-02T23:39:42.662Z,94.00
2018-05-02T23:41:44.340Z,94.10
2018-05-02T23:43:45.337Z,93.80
2018-05-02T23:45:46.372Z,93.30
2018-05-02T23:47:47.301Z,93.50
2018-05-02T23:49:48.280Z,93.30
2018-05-02T23:51:49.196Z,93.50
2018-05-02T23:53:50.165Z,93.50
2018-05-02T23:55:51.144Z,93.60
2018-05-02T23:57:52.853Z,93.60
2018-05-02T23:59:53.791Z,93.30
